createdAt,value
2017-08-24T00:00:45.250Z,16.50
2017-08-24T00:03:12.805Z,18.23
2017-08-24T00:05:40.330Z,15.33
2017-08-24T00:08:07.861Z,15.47
2017-08-24T00:10:35.386Z,15.83
2017-08-24T00:13:02.909Z,16.13
2017-08-24T00:15:30.463Z,17.00
2017-08-24T00:17:57.995Z,16.63
2017-08-24T00:20:25.578Z,17.40
2017-08-24T00:22:53.110Z,15.93
2017-08-24T00:25:20.633Z,16.40
2017-08-24T00:27:48.186Z,18.63
2017-08-24T00:30:15.717Z,15.80
2017-08-24T00:32:43.250Z,20.13
2017-08-24T00:35:10.774Z,17.30
2017-08-24T00:37:38.398Z,18.20
2017-08-24T00:40:06.046Z,16.33
2017-08-24T00:42:33.569Z,17.07
2017-08-24T00:45:01.098Z,18.47
2017-08-24T00:47:28.657Z,17.37
2017-08-24T00:49:56.187Z,17.90
2017-08-24T00:52:23.744Z,17.40
2017-08-24T00:54:51.269Z,16.67
2017-08-24T00:57:18.798Z,17.03
2017-08-24T00:59:46.325Z,17.47
2017-08-24T01:02:13.841Z,16.53
2017-08-24T01:04:41.391Z,17.67
2017-08-24T01:07:08.913Z,15.87
2017-08-24T01:09:36.438Z,16.13
2017-08-24T01:12:03.969Z,16.93
2017-08-24T01:14:31.557Z,15.40
2017-08-24T01:16:59.113Z,15.63
2017-08-24T01:19:26.637Z,15.73
2017-08-24T01:21:54.231Z,16.17
2017-08-24T01:24:21.760Z,16.17
2017-08-24T01:26:50.049Z,16.57
2017-08-24T01:29:17.601Z,15.70
2017-08-24T01:31:45.133Z,17.00
2017-08-24T01:34:12.663Z,16.47
2017-08-24T01:36:40.186Z,16.30
2017-08-24T01:39:07.712Z,15.60
2017-08-24T01:41:35.329Z,16.77
2017-08-24T01:44:02.861Z,17.33
2017-08-24T01:46:30.387Z,16.03
2017-08-24T01:48:57.922Z,17.17
2017-08-24T01:51:25.444Z,17.57
2017-08-24T01:53:53.032Z,17.40
2017-08-24T01:56:20.568Z,16.90
2017-08-24T01:58:48.092Z,18.20
2017-08-24T02:01:15.614Z,16.60
2017-08-24T02:03:43.142Z,16.87
2017-08-24T02:06:10.697Z,16.03
2017-08-24T02:08:38.234Z,17.87
2017-08-24T02:11:05.773Z,17.80
2017-08-24T02:13:33.306Z,19.37
2017-08-24T02:16:00.833Z,16.30
2017-08-24T02:18:28.466Z,18.03
2017-08-24T02:20:55.990Z,18.37
2017-08-24T02:23:23.521Z,18.03
2017-08-24T02:25:51.059Z,17.63
2017-08-24T02:28:18.602Z,18.37
2017-08-24T02:30:46.151Z,17.87
2017-08-24T02:33:13.673Z,17.80
2017-08-24T02:35:41.194Z,18.27
2017-08-24T02:38:08.725Z,17.70
2017-08-24T02:40:36.257Z,17.83
2017-08-24T02:43:03.814Z,17.90
2017-08-24T02:45:31.346Z,19.43
2017-08-24T02:47:58.870Z,18.03
2017-08-24T02:50:26.400Z,17.30
2017-08-24T02:52:53.923Z,18.37
2017-08-24T02:55:21.480Z,18.67
2017-08-24T02:57:49.030Z,18.33
2017-08-24T03:00:16.562Z,17.33
2017-08-24T03:02:44.109Z,18.47
2017-08-24T03:05:11.637Z,18.87
2017-08-24T03:07:39.194Z,19.70
2017-08-24T03:10:06.714Z,18.07
2017-08-24T03:12:34.238Z,17.63
2017-08-24T03:15:01.758Z,17.70
2017-08-24T03:17:29.286Z,17.53
2017-08-24T03:19:56.845Z,17.63
2017-08-24T03:22:24.374Z,17.40
2017-08-24T03:24:51.897Z,17.50
2017-08-24T03:27:19.425Z,17.70
2017-08-24T03:29:46.953Z,15.57
2017-08-24T03:32:14.513Z,17.07
2017-08-24T03:34:42.802Z,16.80
2017-08-24T03:37:10.334Z,16.77
2017-08-24T03:39:37.865Z,16.20
2017-08-24T03:42:05.394Z,15.27
2017-08-24T03:44:33.125Z,15.13
2017-08-24T03:47:00.660Z,16.03
2017-08-24T03:49:28.192Z,15.73
2017-08-24T03:51:55.718Z,15.67
2017-08-24T03:54:23.242Z,15.30
2017-08-24T03:56:50.789Z,15.77
2017-08-24T03:59:18.419Z,15.60
2017-08-24T04:01:45.953Z,17.20
2017-08-24T04:04:13.486Z,15.17
2017-08-24T04:06:41.014Z,15.40
2017-08-24T04:09:08.565Z,17.50
2017-08-24T04:11:36.089Z,17.60
2017-08-24T04:14:03.613Z,15.97
2017-08-24T04:16:31.134Z,16.17
2017-08-24T04:18:58.662Z,15.87
2017-08-24T04:21:26.217Z,15.90
2017-08-24T04:23:53.746Z,17.97
2017-08-24T04:26:22.037Z,16.90
2017-08-24T04:28:49.569Z,16.57
2017-08-24T04:31:17.089Z,17.57
2017-08-24T04:33:44.662Z,17.23
2017-08-24T04:36:12.184Z,16.40
2017-08-24T04:38:39.705Z,16.70
2017-08-24T04:41:07.236Z,18.87
2017-08-24T04:43:34.765Z,16.83
2017-08-24T04:46:02.475Z,17.70
2017-08-24T04:48:30.006Z,17.63
2017-08-24T04:50:57.536Z,16.23
2017-08-24T04:53:25.069Z,17.87
2017-08-24T04:55:52.589Z,17.30
2017-08-24T04:58:20.142Z,17.83
2017-08-24T05:00:47.669Z,17.40
2017-08-24T05:03:15.201Z,18.23
2017-08-24T05:05:42.731Z,17.63
2017-08-24T05:08:10.258Z,18.37
2017-08-24T05:10:37.810Z,18.60
2017-08-24T05:13:05.342Z,21.00
2017-08-24T05:15:33.638Z,18.30
2017-08-24T05:18:01.161Z,17.77
2017-08-24T05:20:29.474Z,18.30
2017-08-24T05:22:57.028Z,16.63
2017-08-24T05:25:24.558Z,16.57
2017-08-24T05:27:52.077Z,18.03
2017-08-24T05:30:19.598Z,17.73
2017-08-24T05:32:47.121Z,17.63
2017-08-24T05:35:14.682Z,17.73
2017-08-24T05:37:42.210Z,15.00
2017-08-24T05:40:09.729Z,15.73
2017-08-24T05:42:37.255Z,16.63
2017-08-24T05:45:04.782Z,16.60
2017-08-24T05:47:33.102Z,15.00
2017-08-24T05:50:00.635Z,15.77
2017-08-24T05:52:28.166Z,20.93
2017-08-24T05:54:55.690Z,18.93
2017-08-24T05:57:23.221Z,18.70
2017-08-24T05:59:50.790Z,16.13
2017-08-24T06:02:19.094Z,19.40
2017-08-24T06:04:46.625Z,17.43
2017-08-24T06:07:14.154Z,16.63
2017-08-24T06:09:41.698Z,16.30
2017-08-24T06:12:09.254Z,17.07
2017-08-24T06:14:36.789Z,16.63
2017-08-24T06:17:04.317Z,16.07
2017-08-24T06:19:31.850Z,17.30
2017-08-24T06:21:59.378Z,15.60
2017-08-24T06:24:27.032Z,14.40
2017-08-24T06:26:54.569Z,14.17
2017-08-24T06:29:22.098Z,14.67
2017-08-24T06:31:49.626Z,15.00
2017-08-24T06:34:17.159Z,16.17
2017-08-24T06:36:44.710Z,14.60
2017-08-24T06:39:12.233Z,18.20
2017-08-24T06:41:40.526Z,14.47
2017-08-24T06:44:08.056Z,16.10
2017-08-24T06:46:35.586Z,15.70
2017-08-24T06:49:03.139Z,15.03
2017-08-24T06:51:30.662Z,15.90
2017-08-24T06:53:58.189Z,16.47
2017-08-24T06:56:25.719Z,17.50
2017-08-24T06:58:53.248Z,14.40
2017-08-24T07:01:20.802Z,13.73
2017-08-24T07:03:48.334Z,13.73
2017-08-24T07:06:16.626Z,14.37
2017-08-24T07:08:44.155Z,15.30
2017-08-24T07:11:11.681Z,14.43
2017-08-24T07:13:39.234Z,15.57
2017-08-24T07:16:06.762Z,14.17
2017-08-24T07:18:34.285Z,26.90
2017-08-24T07:21:01.814Z,12.93
2017-08-24T07:23:29.338Z,13.23
2017-08-24T07:25:56.894Z,12.77
2017-08-24T07:28:24.424Z,12.37
2017-08-24T07:30:51.945Z,11.97
2017-08-24T07:33:19.458Z,9.50
2017-08-24T07:35:47.741Z,9.27
2017-08-24T07:38:15.285Z,9.40
2017-08-24T07:40:42.810Z,9.60
2017-08-24T07:43:10.322Z,9.80
2017-08-24T07:45:37.842Z,9.67
2017-08-24T07:48:05.358Z,8.93
2017-08-24T07:50:32.909Z,8.20
2017-08-24T07:53:00.433Z,8.20
2017-08-24T07:55:27.950Z,9.63
2017-08-24T07:57:55.466Z,7.70
2017-08-24T08:00:22.990Z,11.57
2017-08-24T08:02:50.542Z,8.93
2017-08-24T08:05:18.058Z,8.97
2017-08-24T08:07:45.582Z,8.90
2017-08-24T08:10:13.100Z,7.97
2017-08-24T08:12:40.614Z,8.70
2017-08-24T08:15:08.194Z,8.10
2017-08-24T08:17:35.711Z,8.73
2017-08-24T08:20:03.232Z,9.23
2017-08-24T08:22:30.745Z,7.60
2017-08-24T08:24:58.273Z,7.67
2017-08-24T08:27:25.818Z,8.43
2017-08-24T08:29:53.334Z,9.30
2017-08-24T08:32:20.850Z,9.03
2017-08-24T08:34:48.373Z,9.83
2017-08-24T08:37:15.890Z,8.23
2017-08-24T08:39:43.446Z,7.67
2017-08-24T08:42:10.974Z,12.87
2017-08-24T08:44:38.590Z,8.37
2017-08-24T08:47:06.044Z,8.80
2017-08-24T08:49:33.566Z,7.50
2017-08-24T08:52:01.153Z,8.07
2017-08-24T08:54:28.664Z,9.67
2017-08-24T08:56:56.190Z,7.30
2017-08-24T08:59:23.741Z,8.00
2017-08-24T09:01:51.258Z,7.50
2017-08-24T09:04:18.809Z,8.53
2017-08-24T09:06:46.337Z,7.17
2017-08-24T09:09:13.863Z,7.83
2017-08-24T09:11:41.387Z,8.03
2017-08-24T09:14:08.901Z,7.63
2017-08-24T09:16:36.422Z,7.50
2017-08-24T09:19:03.938Z,7.03
2017-08-24T09:21:31.459Z,7.70
2017-08-24T09:23:58.994Z,7.97
2017-08-24T09:26:26.526Z,6.37
2017-08-24T09:28:54.138Z,7.30
2017-08-24T09:31:21.665Z,6.97
2017-08-24T09:33:49.185Z,7.40
2017-08-24T09:36:16.807Z,6.97
2017-08-24T09:38:44.326Z,7.23
2017-08-24T09:41:11.961Z,9.93
2017-08-24T09:43:39.478Z,8.20
2017-08-24T09:46:06.992Z,6.73
2017-08-24T09:48:34.510Z,7.83
2017-08-24T09:51:02.034Z,9.33
2017-08-24T09:53:30.338Z,9.00
2017-08-24T09:55:57.863Z,6.80
2017-08-24T10:00:59.425Z,7.03
2017-08-24T10:03:26.948Z,7.70
2017-08-24T10:05:54.495Z,7.60
2017-08-24T10:08:22.019Z,7.27
2017-08-24T10:10:49.550Z,6.80
2017-08-24T10:13:17.071Z,7.60
2017-08-24T10:15:44.614Z,7.03
2017-08-24T10:18:12.166Z,6.60
2017-08-24T10:20:39.686Z,7.33
2017-08-24T10:23:07.977Z,7.50
2017-08-24T10:25:35.503Z,7.70
2017-08-24T10:28:03.025Z,7.30
2017-08-24T10:30:30.621Z,6.60
2017-08-24T10:32:58.123Z,6.53
2017-08-24T10:35:25.640Z,6.80
2017-08-24T10:37:53.159Z,7.27
2017-08-24T10:40:20.681Z,7.67
2017-08-24T10:42:48.974Z,7.13
2017-08-24T10:45:16.496Z,6.77
2017-08-24T10:47:44.022Z,7.00
2017-08-24T10:50:11.545Z,7.60
2017-08-24T10:52:39.070Z,7.23
2017-08-24T10:55:06.617Z,7.40
2017-08-24T10:57:34.145Z,7.10
2017-08-24T11:00:01.670Z,6.97
2017-08-24T11:02:29.201Z,7.10
2017-08-24T11:04:56.722Z,6.80
2017-08-24T11:07:24.250Z,7.47
2017-08-24T11:09:51.773Z,7.27
2017-08-24T11:12:19.297Z,7.80
2017-08-24T11:14:46.828Z,7.17
2017-08-24T11:17:14.357Z,7.00
2017-08-24T11:19:41.909Z,7.37
2017-08-24T11:22:09.437Z,8.17
2017-08-24T11:24:36.953Z,7.37
2017-08-24T11:27:05.238Z,7.20
2017-08-24T11:29:32.753Z,9.17
2017-08-24T11:32:00.270Z,7.90
2017-08-24T11:34:27.794Z,7.40
2017-08-24T11:36:55.316Z,6.93
2017-08-24T11:39:22.862Z,7.57
2017-08-24T11:41:50.374Z,7.20
2017-08-24T11:44:17.893Z,7.10
2017-08-24T11:46:45.469Z,7.00
2017-08-24T11:49:13.082Z,8.13
2017-08-24T11:51:40.606Z,7.00
2017-08-24T11:54:08.174Z,15.63
2017-08-24T11:56:35.706Z,6.87
2017-08-24T11:59:03.319Z,6.77
2017-08-24T12:01:30.870Z,6.30
2017-08-24T12:03:58.390Z,7.17
2017-08-24T12:06:25.913Z,7.30
2017-08-24T12:08:53.462Z,7.67
2017-08-24T12:11:20.986Z,6.97
2017-08-24T12:13:48.510Z,7.13
2017-08-24T12:16:16.066Z,6.70
2017-08-24T12:18:43.582Z,6.97
2017-08-24T12:21:11.106Z,6.90
2017-08-24T12:23:38.906Z,7.10
2017-08-24T12:26:06.426Z,7.30
2017-08-24T12:28:33.955Z,6.80
2017-08-24T12:31:01.506Z,7.23
2017-08-24T12:33:29.043Z,7.63
2017-08-24T12:35:57.332Z,7.00
2017-08-24T12:38:24.877Z,6.90
2017-08-24T12:40:52.429Z,6.90
2017-08-24T12:43:19.978Z,7.20
2017-08-24T12:45:47.510Z,8.67
2017-08-24T12:48:15.034Z,7.90
2017-08-24T12:50:42.549Z,8.20
2017-08-24T12:53:10.082Z,7.00
2017-08-24T12:55:37.650Z,6.83
2017-08-24T12:58:05.174Z,7.33
2017-08-24T13:00:32.706Z,6.90
2017-08-24T13:03:00.229Z,8.17
2017-08-24T13:05:27.761Z,7.30
2017-08-24T13:07:55.326Z,7.23
2017-08-24T13:10:22.856Z,7.77
2017-08-24T13:12:50.375Z,6.90
2017-08-24T13:15:17.899Z,7.63
2017-08-24T13:17:45.425Z,8.07
2017-08-24T13:20:12.990Z,7.70
2017-08-24T13:22:40.620Z,7.70
2017-08-24T13:25:08.137Z,7.23
2017-08-24T13:27:35.662Z,8.03
2017-08-24T13:30:03.185Z,7.63
2017-08-24T13:32:30.740Z,8.30
2017-08-24T13:34:58.267Z,8.10
2017-08-24T13:37:25.794Z,7.30
2017-08-24T13:39:53.309Z,7.83
2017-08-24T13:42:21.810Z,7.47
2017-08-24T13:44:49.369Z,7.53
2017-08-24T13:47:16.893Z,8.47
2017-08-24T13:49:44.426Z,7.47
2017-08-24T13:52:11.958Z,7.30
2017-08-24T13:54:39.478Z,9.70
2017-08-24T13:57:07.042Z,8.77
2017-08-24T13:59:34.577Z,11.20
2017-08-24T14:02:02.102Z,9.43
2017-08-24T14:04:29.623Z,7.40
2017-08-24T14:06:57.153Z,7.70
2017-08-24T14:09:24.706Z,7.90
2017-08-24T14:11:52.230Z,7.33
2017-08-24T14:14:19.754Z,8.50
2017-08-24T14:16:47.271Z,7.77
2017-08-24T14:19:14.796Z,7.80
2017-08-24T14:21:42.443Z,7.40
2017-08-24T14:24:10.030Z,7.27
2017-08-24T14:26:37.545Z,6.43
2017-08-24T14:29:05.069Z,6.93
2017-08-24T14:31:32.681Z,8.20
2017-08-24T14:34:00.443Z,7.53
2017-08-24T14:36:27.974Z,7.40
2017-08-24T14:38:55.505Z,7.90
2017-08-24T14:41:23.031Z,7.93
2017-08-24T14:43:50.581Z,8.87
2017-08-24T14:46:18.130Z,7.03
2017-08-24T14:48:45.699Z,7.90
2017-08-24T14:51:13.231Z,43.67
2017-08-24T14:53:40.760Z,11.43
2017-08-24T14:56:08.270Z,8.43
2017-08-24T14:58:35.831Z,8.40
2017-08-24T15:01:03.357Z,8.77
2017-08-24T15:03:30.877Z,8.80
2017-08-24T15:05:58.396Z,7.70
2017-08-24T15:08:25.984Z,8.33
2017-08-24T15:10:53.550Z,8.63
2017-08-24T15:13:21.075Z,8.13
2017-08-24T15:15:48.593Z,8.37
2017-08-24T15:18:16.885Z,9.20
2017-08-24T15:20:44.449Z,9.13
2017-08-24T15:23:12.013Z,9.20
2017-08-24T15:25:39.547Z,8.10
2017-08-24T15:28:07.071Z,8.93
2017-08-24T15:30:34.600Z,7.83
2017-08-24T15:33:02.133Z,70.10
2017-08-24T15:35:29.698Z,13.47
2017-08-24T15:37:57.226Z,9.88
2017-08-24T15:40:24.844Z,8.97
2017-08-24T15:42:52.369Z,8.63
2017-08-24T15:45:20.658Z,7.73
2017-08-24T15:47:49.017Z,9.53
2017-08-24T15:50:17.305Z,8.53
2017-08-24T15:52:44.826Z,8.00
2017-08-24T15:55:12.346Z,7.77
2017-08-24T15:57:39.870Z,8.47
2017-08-24T16:00:07.417Z,9.17
2017-08-24T16:02:34.941Z,8.47
2017-08-24T16:05:02.494Z,9.43
2017-08-24T16:07:30.023Z,9.70
2017-08-24T16:09:57.550Z,9.10
2017-08-24T16:12:25.869Z,10.80
2017-08-24T16:14:53.406Z,9.80
2017-08-24T16:17:20.926Z,9.57
2017-08-24T16:19:48.444Z,9.30
2017-08-24T16:22:15.962Z,9.77
2017-08-24T16:24:43.526Z,9.57
2017-08-24T16:27:11.042Z,10.13
2017-08-24T16:29:38.579Z,9.23
2017-08-24T16:32:06.098Z,9.50
2017-08-24T16:34:33.646Z,9.80
2017-08-24T16:37:01.205Z,10.50
2017-08-24T16:39:28.725Z,10.57
2017-08-24T16:41:56.249Z,12.23
2017-08-24T16:44:23.780Z,9.60
2017-08-24T16:46:51.301Z,9.83
2017-08-24T16:49:19.050Z,9.80
2017-08-24T16:51:46.574Z,9.40
2017-08-24T16:54:14.869Z,9.33
2017-08-24T16:56:42.398Z,10.17
2017-08-24T16:59:09.935Z,10.43
2017-08-24T17:01:37.481Z,10.80
2017-08-24T17:04:05.026Z,12.00
2017-08-24T17:06:32.554Z,13.50
2017-08-24T17:09:00.082Z,13.00
2017-08-24T17:11:27.602Z,9.97
2017-08-24T17:13:55.167Z,15.93
2017-08-24T17:16:22.693Z,14.50
2017-08-24T17:18:50.218Z,10.93
2017-08-24T17:21:17.749Z,10.90
2017-08-24T17:23:45.278Z,11.03
2017-08-24T17:26:12.832Z,19.40
2017-08-24T17:28:40.363Z,10.73
2017-08-24T17:31:07.897Z,15.67
2017-08-24T17:33:35.424Z,19.77
2017-08-24T17:36:02.998Z,15.13
2017-08-24T17:38:30.552Z,9.93
2017-08-24T17:40:58.079Z,10.40
2017-08-24T17:43:25.658Z,12.07
2017-08-24T17:45:53.195Z,20.13
2017-08-24T17:48:20.739Z,13.30
2017-08-24T17:50:49.073Z,16.27
2017-08-24T17:53:16.610Z,19.80
2017-08-24T17:55:44.138Z,33.00
2017-08-24T17:58:11.667Z,26.13
2017-08-24T18:00:39.198Z,27.03
2017-08-24T18:03:06.749Z,15.00
2017-08-24T18:05:34.278Z,16.30
2017-08-24T18:08:01.856Z,15.93
2017-08-24T18:10:29.383Z,14.73
2017-08-24T18:12:56.916Z,15.17
2017-08-24T18:15:24.474Z,13.83
2017-08-24T18:17:52.012Z,13.30
2017-08-24T18:20:19.655Z,13.77
2017-08-24T18:22:47.188Z,12.60
2017-08-24T18:25:14.718Z,24.63
2017-08-24T18:27:42.278Z,12.60
2017-08-24T18:30:09.809Z,12.00
2017-08-24T18:32:37.340Z,12.37
2017-08-24T18:35:04.867Z,12.43
2017-08-24T18:37:32.474Z,13.57
2017-08-24T18:40:00.022Z,12.60
2017-08-24T18:42:27.566Z,12.97
2017-08-24T18:44:55.098Z,12.10
2017-08-24T18:47:22.625Z,13.00
2017-08-24T18:49:50.162Z,14.30
2017-08-24T18:52:17.713Z,13.70
2017-08-24T18:54:45.243Z,15.23
2017-08-24T18:57:12.765Z,12.07
2017-08-24T18:59:40.294Z,13.30
2017-08-24T19:02:07.822Z,12.90
2017-08-24T19:04:35.381Z,13.43
2017-08-24T19:07:02.910Z,13.60
2017-08-24T19:09:30.434Z,19.07
2017-08-24T19:11:57.961Z,16.40
2017-08-24T19:14:25.490Z,16.93
2017-08-24T19:16:53.044Z,14.97
2017-08-24T19:19:20.569Z,13.57
2017-08-24T19:21:48.125Z,29.23
2017-08-24T19:24:15.993Z,15.63
2017-08-24T19:26:43.522Z,16.50
2017-08-24T19:29:11.077Z,15.17
2017-08-24T19:31:38.614Z,14.63
2017-08-24T19:34:06.137Z,14.80
2017-08-24T19:36:33.669Z,17.93
2017-08-24T19:39:01.201Z,15.00
2017-08-24T19:41:28.750Z,15.23
2017-08-24T19:43:56.279Z,18.57
2017-08-24T19:46:23.817Z,17.17
2017-08-24T19:48:51.363Z,22.87
2017-08-24T19:51:18.911Z,27.60
2017-08-24T19:53:46.546Z,21.83
2017-08-24T19:56:14.838Z,17.77
2017-08-24T19:58:42.383Z,18.47
2017-08-24T20:01:09.910Z,17.70
2017-08-24T20:03:37.444Z,19.20
2017-08-24T20:06:05.013Z,21.27
2017-08-24T20:08:32.539Z,23.33
2017-08-24T20:11:00.065Z,31.43
2017-08-24T20:13:27.590Z,18.37
2017-08-24T20:15:55.121Z,16.60
2017-08-24T20:18:22.682Z,19.10
2017-08-24T20:20:50.214Z,23.57
2017-08-24T20:23:17.742Z,18.33
2017-08-24T20:25:45.267Z,18.30
2017-08-24T20:28:12.802Z,17.70
2017-08-24T20:30:40.368Z,23.50
2017-08-24T20:33:07.889Z,23.47
2017-08-24T20:35:35.413Z,19.47
2017-08-24T20:38:02.939Z,20.57
2017-08-24T20:40:30.474Z,19.37
2017-08-24T20:42:58.049Z,17.63
2017-08-24T20:45:25.578Z,18.67
2017-08-24T20:47:53.141Z,19.00
2017-08-24T20:50:20.677Z,18.47
2017-08-24T20:52:48.213Z,17.93
2017-08-24T20:55:15.765Z,17.93
2017-08-24T20:57:43.289Z,18.73
2017-08-24T21:00:11.580Z,17.27
2017-08-24T21:02:39.102Z,18.30
2017-08-24T21:05:06.634Z,18.60
2017-08-24T21:07:34.194Z,18.53
2017-08-24T21:10:01.723Z,21.13
2017-08-24T21:12:29.269Z,19.23
2017-08-24T21:14:56.796Z,18.83
2017-08-24T21:17:24.326Z,18.00
2017-08-24T21:19:51.881Z,19.10
2017-08-24T21:22:19.401Z,19.83
2017-08-24T21:24:46.925Z,18.80
2017-08-24T21:27:14.450Z,18.03
2017-08-24T21:29:41.978Z,19.07
2017-08-24T21:32:09.530Z,19.07
2017-08-24T21:34:37.053Z,17.90
2017-08-24T21:37:04.586Z,17.70
2017-08-24T21:39:32.115Z,16.33
2017-08-24T21:41:59.685Z,17.60
2017-08-24T21:44:27.249Z,22.63
2017-08-24T21:46:54.778Z,15.70
2017-08-24T21:49:22.302Z,17.30
2017-08-24T21:51:49.826Z,15.30
2017-08-24T21:54:17.361Z,15.53
2017-08-24T21:56:44.911Z,17.33
2017-08-24T21:59:12.438Z,15.73
2017-08-24T22:01:39.970Z,15.90
2017-08-24T22:04:07.513Z,16.07
2017-08-24T22:06:35.043Z,16.83
2017-08-24T22:09:02.591Z,17.53
2017-08-24T22:11:30.117Z,16.87
2017-08-24T22:13:57.670Z,17.37
2017-08-24T22:16:25.203Z,15.93
2017-08-24T22:18:52.745Z,17.10
2017-08-24T22:21:20.289Z,16.40
2017-08-24T22:23:47.888Z,16.20
2017-08-24T22:26:15.418Z,16.77
2017-08-24T22:28:42.941Z,16.27
2017-08-24T22:31:10.465Z,17.20
2017-08-24T22:33:38.018Z,17.87
2017-08-24T22:36:05.546Z,18.33
2017-08-24T22:38:33.069Z,17.67
2017-08-24T22:41:00.596Z,17.97
2017-08-24T22:43:28.125Z,18.07
2017-08-24T22:45:55.678Z,17.70
2017-08-24T22:48:23.202Z,20.10
2017-08-24T22:50:50.735Z,21.57
2017-08-24T22:53:23.977Z,22.27
2017-08-24T22:55:57.141Z,22.20
2017-08-24T22:58:30.458Z,25.60
2017-08-24T23:01:03.605Z,23.10
2017-08-24T23:03:36.770Z,22.33
2017-08-24T23:06:04.294Z,23.20
2017-08-24T23:08:31.852Z,23.80
2017-08-24T23:10:59.375Z,23.40
2017-08-24T23:13:26.903Z,21.13
2017-08-24T23:15:54.437Z,23.23
2017-08-24T23:18:21.969Z,22.10
2017-08-24T23:20:49.523Z,20.77
2017-08-24T23:23:17.058Z,20.73
2017-08-24T23:25:44.592Z,22.30
2017-08-24T23:28:12.118Z,21.73
2017-08-24T23:30:39.687Z,20.70
2017-08-24T23:33:07.239Z,19.90
2017-08-24T23:35:34.762Z,19.87
2017-08-24T23:38:02.290Z,21.40
2017-08-24T23:40:29.814Z,20.73
2017-08-24T23:42:57.349Z,21.60
2017-08-24T23:45:24.902Z,19.97
2017-08-24T23:47:52.430Z,21.97
2017-08-24T23:50:19.962Z,22.27
2017-08-24T23:52:47.490Z,21.77
2017-08-24T23:55:15.024Z,23.17
2017-08-24T23:57:42.574Z,26.63
